createdAt,value
2022-12-01T00:01:34.197Z,102336.72
2022-12-01T00:04:02.391Z,102343.78
2022-12-01T00:06:30.516Z,102341.19
2022-12-01T00:09:19.694Z,102345.53
2022-12-01T00:11:48.608Z,102344.75
2022-12-01T00:14:18.118Z,102337.78
2022-12-01T00:16:46.469Z,102325.59
2022-12-01T00:19:14.969Z,102328.06
2022-12-01T00:21:43.110Z,102324.75
2022-12-01T00:24:12.511Z,102336.78
2022-12-01T00:26:40.720Z,102328.00
2022-12-01T00:29:09.475Z,102334.94
2022-12-01T00:31:39.014Z,102332.25
2022-12-01T00:34:11.346Z,102346.94
2022-12-01T00:36:40.817Z,102348.00
2022-12-01T00:39:09.430Z,102350.41
2022-12-01T00:41:37.665Z,102352.22
2022-12-01T00:44:06.297Z,102347.91
2022-12-01T00:46:34.600Z,102350.47
2022-12-01T00:49:04.718Z,102347.97
2022-12-01T00:51:32.929Z,102343.56
2022-12-01T00:54:01.077Z,102345.47
2022-12-01T00:56:29.204Z,102357.72
2022-12-01T00:58:57.353Z,102349.81
2022-12-01T01:01:25.531Z,102349.94
2022-12-01T01:03:54.159Z,102355.06
2022-12-01T01:06:23.605Z,102355.94
2022-12-01T01:08:51.764Z,102351.56
2022-12-01T01:11:19.952Z,102350.81
2022-12-01T01:13:48.209Z,102360.25
2022-12-01T01:16:18.825Z,102354.25
2022-12-01T01:18:47.257Z,102360.13
2022-12-01T01:21:17.149Z,102360.16
2022-12-01T01:23:46.864Z,102366.00
2022-12-01T01:26:18.431Z,102360.91
2022-12-01T01:28:46.952Z,102357.38
2022-12-01T01:31:17.714Z,102361.69
2022-12-01T01:33:45.923Z,102352.09
2022-12-01T01:36:16.203Z,102357.47
2022-12-01T01:38:46.288Z,102352.25
2022-12-01T01:41:15.543Z,102353.13
2022-12-01T01:43:47.503Z,102354.03
2022-12-01T01:46:18.033Z,102354.78
2022-12-01T01:48:50.645Z,102354.72
2022-12-01T01:51:23.417Z,102352.25
2022-12-01T01:53:57.563Z,102356.53
2022-12-01T01:56:25.824Z,102362.72
2022-12-01T01:58:54.362Z,102360.81
2022-12-01T02:01:22.672Z,102355.59
2022-12-01T02:03:53.502Z,102366.91
2022-12-01T02:06:23.863Z,102366.03
2022-12-01T02:08:53.723Z,102368.88
2022-12-01T02:11:49.329Z,102364.06
2022-12-01T02:14:35.475Z,102376.22
2022-12-01T02:17:12.616Z,102369.16
2022-12-01T02:20:09.945Z,102361.41
2022-12-01T02:22:54.595Z,102360.50
2022-12-01T02:25:29.589Z,102365.06
2022-12-01T02:28:25.381Z,102361.59
2022-12-01T02:30:59.623Z,102356.47
2022-12-01T02:33:33.427Z,102352.97
2022-12-01T02:36:05.202Z,102350.16
2022-12-01T02:38:39.774Z,102354.59
2022-12-01T02:41:13.551Z,102349.56
2022-12-01T02:43:48.171Z,102343.25
2022-12-01T02:46:25.859Z,102347.72
2022-12-01T02:48:56.373Z,102349.53
2022-12-01T02:51:29.106Z,102334.72
2022-12-01T02:53:59.056Z,102342.56
2022-12-01T02:56:27.391Z,102340.00
2022-12-01T02:58:56.027Z,102337.41
2022-12-01T03:01:45.057Z,102345.06
2022-12-01T03:04:31.619Z,102339.09
2022-12-01T03:07:10.744Z,102338.13
2022-12-01T03:09:47.774Z,102345.13
2022-12-01T03:12:24.911Z,102331.13
2022-12-01T03:15:04.224Z,102337.16
2022-12-01T03:17:41.574Z,102340.72
2022-12-01T03:20:15.975Z,102340.59
2022-12-01T03:22:50.301Z,102335.44
2022-12-01T03:25:20.864Z,102341.34
2022-12-01T03:28:20.109Z,102335.31
2022-12-01T03:30:46.974Z,102335.44
2022-12-01T03:33:22.032Z,102344.94
2022-12-01T03:35:55.051Z,102343.19
2022-12-01T03:38:26.016Z,102348.34
2022-12-01T03:40:59.215Z,102350.97
2022-12-01T03:43:31.493Z,102345.75
2022-12-01T03:46:04.878Z,102342.28
2022-12-01T03:48:35.136Z,102349.28
2022-12-01T03:51:10.970Z,102350.16
2022-12-01T03:53:48.074Z,102342.28
2022-12-01T03:56:20.819Z,102350.28
2022-12-01T03:58:52.037Z,102331.97
2022-12-01T04:01:22.281Z,102337.19
2022-12-01T04:03:51.846Z,102339.78
2022-12-01T04:06:20.059Z,102342.31
2022-12-01T04:08:48.181Z,102342.41
2022-12-01T04:11:34.320Z,102351.09
2022-12-01T04:14:02.474Z,102349.19
2022-12-01T04:16:30.680Z,102344.06
2022-12-01T04:19:01.518Z,102350.22
2022-12-01T04:21:29.701Z,102356.28
2022-12-01T04:24:01.057Z,102351.88
2022-12-01T04:26:30.832Z,102353.78
2022-12-01T04:28:59.502Z,102346.88
2022-12-01T04:31:27.853Z,102352.84
2022-12-01T04:33:56.454Z,102344.94
2022-12-01T04:36:26.002Z,102345.81
2022-12-01T04:38:54.612Z,102348.59
2022-12-01T04:41:22.898Z,102352.03
2022-12-01T04:43:53.748Z,102345.13
2022-12-01T04:46:22.608Z,102344.28
2022-12-01T04:48:50.961Z,102348.59
2022-12-01T04:51:19.363Z,102343.44
2022-12-01T04:53:49.132Z,102348.56
2022-12-01T04:56:17.841Z,102341.59
2022-12-01T04:58:46.068Z,102343.13
2022-12-01T05:01:16.810Z,102343.28
2022-12-01T05:03:46.710Z,102349.31
2022-12-01T05:06:17.592Z,102348.50
2022-12-01T05:08:45.769Z,102349.47
2022-12-01T05:11:16.547Z,102350.19
2022-12-01T05:13:46.629Z,102355.50
2022-12-01T05:16:16.703Z,102353.91
2022-12-01T05:18:49.000Z,102353.72
2022-12-01T05:21:16.984Z,102361.50
2022-12-01T05:23:45.679Z,102355.56
2022-12-01T05:26:15.516Z,102366.75
2022-12-01T05:28:43.676Z,102370.91
2022-12-01T05:31:12.100Z,102370.25
2022-12-01T05:33:40.361Z,102370.06
2022-12-01T05:36:09.067Z,102373.50
2022-12-01T05:38:37.212Z,102376.22
2022-12-01T05:41:05.546Z,102374.56
2022-12-01T05:43:35.041Z,102372.13
2022-12-01T05:46:03.885Z,102373.03
2022-12-01T05:48:32.119Z,102372.13
2022-12-01T05:51:00.277Z,102373.91
2022-12-01T05:53:28.437Z,102382.63
2022-12-01T05:55:56.856Z,102370.53
2022-12-01T05:58:25.032Z,102375.84
2022-12-01T06:00:55.102Z,102373.16
2022-12-01T06:03:23.286Z,102372.34
2022-12-01T06:05:51.829Z,102369.72
2022-12-01T06:08:20.577Z,102367.94
2022-12-01T06:10:48.737Z,102364.38
2022-12-01T06:13:17.157Z,102372.34
2022-12-01T06:15:45.377Z,102380.00
2022-12-01T06:18:14.839Z,102380.88
2022-12-01T06:20:43.002Z,102384.34
2022-12-01T06:23:11.139Z,102380.03
2022-12-01T06:25:39.272Z,102386.06
2022-12-01T06:28:07.403Z,102386.84
2022-12-01T06:30:35.972Z,102392.06
2022-12-01T06:33:04.250Z,102395.47
2022-12-01T06:35:33.885Z,102390.25
2022-12-01T06:38:02.322Z,102389.25
2022-12-01T06:40:30.508Z,102402.41
2022-12-01T06:43:00.876Z,102403.28
2022-12-01T06:45:30.160Z,102395.44
2022-12-01T06:47:59.240Z,102400.72
2022-12-01T06:50:27.632Z,102400.53
2022-12-01T06:52:59.262Z,102405.94
2022-12-01T06:55:27.586Z,102406.81
2022-12-01T06:57:56.080Z,102414.72
2022-12-01T07:00:24.489Z,102406.78
2022-12-01T07:02:52.671Z,102405.84
2022-12-01T07:05:21.035Z,102404.09
2022-12-01T07:07:49.307Z,102404.09
2022-12-01T07:10:18.933Z,102400.63
2022-12-01T07:12:47.089Z,102406.59
2022-12-01T07:15:15.253Z,102407.53
2022-12-01T07:17:43.575Z,102411.09
2022-12-01T07:20:13.002Z,102411.19
2022-12-01T07:22:42.974Z,102412.84
2022-12-01T07:25:11.110Z,102407.59
2022-12-01T07:27:40.603Z,102413.66
2022-12-01T07:30:09.888Z,102413.81
2022-12-01T07:32:38.166Z,102413.84
2022-12-01T07:35:07.705Z,102403.31
2022-12-01T07:37:35.840Z,102412.91
2022-12-01T07:40:04.323Z,102413.78
2022-12-01T07:42:32.477Z,102414.72
2022-12-01T07:45:02.004Z,102410.38
2022-12-01T07:47:30.116Z,102401.53
2022-12-01T07:49:58.325Z,102404.28
2022-12-01T07:52:26.767Z,102420.78
2022-12-01T07:54:54.948Z,102420.94
2022-12-01T07:57:23.755Z,102420.94
2022-12-01T07:59:52.991Z,102422.47
2022-12-01T08:02:22.555Z,102427.69
2022-12-01T08:04:51.012Z,102428.72
2022-12-01T08:07:19.147Z,102428.69
2022-12-01T08:09:47.606Z,102427.03
2022-12-01T08:12:15.996Z,102427.78
2022-12-01T08:14:44.133Z,102427.06
2022-12-01T08:17:12.288Z,102423.53
2022-12-01T08:19:42.040Z,102423.56
2022-12-01T08:22:10.211Z,102427.00
2022-12-01T08:24:38.449Z,102424.53
2022-12-01T08:27:06.607Z,102423.66
2022-12-01T08:29:36.251Z,102418.44
2022-12-01T08:32:05.324Z,102422.03
2022-12-01T08:34:36.284Z,102425.25
2022-12-01T08:37:05.765Z,102433.06
2022-12-01T08:39:34.306Z,102435.75
2022-12-01T08:42:02.532Z,102433.28
2022-12-01T08:44:30.705Z,102424.53
2022-12-01T08:46:58.946Z,102425.44
2022-12-01T08:49:27.116Z,102432.53
2022-12-01T08:51:56.657Z,102428.03
2022-12-01T08:54:26.252Z,102439.41
2022-12-01T08:56:54.656Z,102437.63
2022-12-01T08:59:22.779Z,102432.44
2022-12-01T09:01:53.862Z,102441.13
2022-12-01T09:04:24.960Z,102438.53
2022-12-01T09:06:54.674Z,102436.75
2022-12-01T09:09:25.056Z,102434.97
2022-12-01T09:11:55.212Z,102433.25
2022-12-01T09:14:24.699Z,102443.72
2022-12-01T09:16:53.198Z,102440.19
2022-12-01T09:19:24.939Z,102443.72
2022-12-01T09:21:53.831Z,102437.63
2022-12-01T09:24:22.050Z,102435.91
2022-12-01T09:26:50.668Z,102442.84
2022-12-01T09:29:20.132Z,102441.13
2022-12-01T09:31:48.618Z,102448.91
2022-12-01T09:34:19.428Z,102436.75
2022-12-01T09:36:48.566Z,102435.75
2022-12-01T09:39:20.311Z,102435.00
2022-12-01T09:41:54.135Z,102441.06
2022-12-01T09:44:32.359Z,102435.91
2022-12-01T09:47:09.129Z,102432.47
2022-12-01T09:49:45.482Z,102430.63
2022-12-01T09:52:16.757Z,102430.69
2022-12-01T09:54:45.742Z,102434.16
2022-12-01T09:57:18.809Z,102439.31
2022-12-01T09:59:48.613Z,102427.22
2022-12-01T10:02:32.760Z,102428.81
2022-12-01T10:05:05.549Z,102428.91
2022-12-01T10:07:39.283Z,102423.75
2022-12-01T10:10:12.705Z,102424.50
2022-12-01T10:12:43.344Z,102419.28
2022-12-01T10:15:23.557Z,102414.94
2022-12-01T10:18:03.603Z,102408.84
2022-12-01T10:20:40.454Z,102410.75
2022-12-01T10:23:23.962Z,102404.56
2022-12-01T10:25:57.811Z,102397.75
2022-12-01T10:28:52.960Z,102395.97
2022-12-01T10:31:30.212Z,102401.09
2022-12-01T10:34:03.151Z,102398.41
2022-12-01T10:36:33.126Z,102396.78
2022-12-01T10:39:02.251Z,102392.47
2022-12-01T10:41:34.898Z,102402.84
2022-12-01T10:44:06.597Z,102388.91
2022-12-01T10:46:41.911Z,102387.16
2022-12-01T10:49:11.940Z,102379.44
2022-12-01T10:51:53.062Z,102385.44
2022-12-01T10:54:23.067Z,102383.78
2022-12-01T10:56:57.074Z,102382.06
2022-12-01T10:59:30.855Z,102381.97
2022-12-01T11:02:02.841Z,102388.19
2022-12-01T11:04:45.432Z,102387.25
2022-12-01T11:07:20.369Z,102386.44
2022-12-01T11:10:05.450Z,102379.53
2022-12-01T11:12:34.583Z,102375.19
2022-12-01T11:15:03.212Z,102379.53
2022-12-01T11:17:37.966Z,102374.31
2022-12-01T11:20:29.875Z,102376.13
2022-12-01T11:23:24.736Z,102375.28
2022-12-01T11:26:03.903Z,102382.06
2022-12-01T11:28:33.921Z,102374.41
2022-12-01T11:31:04.975Z,102370.81
2022-12-01T11:33:45.098Z,102376.03
2022-12-01T11:36:23.796Z,102370.81
2022-12-01T11:38:57.696Z,102367.44
2022-12-01T11:41:30.714Z,102364.78
2022-12-01T11:44:02.739Z,102368.31
2022-12-01T11:46:35.311Z,102364.03
2022-12-01T11:49:05.009Z,102367.44
2022-12-01T11:51:37.518Z,102375.22
2022-12-01T11:54:13.964Z,102357.00
2022-12-01T11:56:44.279Z,102354.47
2022-12-01T11:59:15.345Z,102359.72
2022-12-01T12:01:59.570Z,102350.16
2022-12-01T12:04:44.186Z,102356.38
2022-12-01T12:07:22.337Z,102357.13
2022-12-01T12:10:04.519Z,102354.47
2022-12-01T12:12:48.209Z,102360.56
2022-12-01T12:15:25.934Z,102346.66
2022-12-01T12:18:22.177Z,102364.97
2022-12-01T12:21:05.270Z,102358.06
2022-12-01T12:24:04.249Z,102362.38
2022-12-01T12:26:39.670Z,102361.56
2022-12-01T12:29:20.939Z,102363.25
2022-12-01T12:32:02.537Z,102352.84
2022-12-01T12:34:44.949Z,102354.56
2022-12-01T12:37:24.639Z,102348.50
2022-12-01T12:40:47.094Z,102351.13
2022-12-01T12:43:23.627Z,102351.97
2022-12-01T12:46:03.676Z,102351.91
2022-12-01T12:49:11.743Z,102348.47
2022-12-01T12:51:37.948Z,102354.53
2022-12-01T12:54:19.195Z,102345.81
2022-12-01T12:56:53.989Z,102340.53
2022-12-01T12:59:25.811Z,102351.00
2022-12-01T13:02:01.726Z,102344.03
2022-12-01T13:04:36.594Z,102346.59
2022-12-01T13:07:10.040Z,102337.03
2022-12-01T13:09:43.312Z,102337.88
2022-12-01T13:12:15.982Z,102342.28
2022-12-01T13:14:49.643Z,102343.97
2022-12-01T13:17:22.483Z,102341.31
2022-12-01T13:19:51.136Z,102345.72
2022-12-01T13:22:32.808Z,102344.81
2022-12-01T13:25:03.566Z,102345.69
2022-12-01T13:27:35.343Z,102346.59
2022-12-01T13:30:04.080Z,102354.31
2022-12-01T13:32:35.652Z,102350.84
2022-12-01T13:35:08.010Z,102341.28
2022-12-01T13:37:38.896Z,102338.69
2022-12-01T13:40:22.188Z,102341.34
2022-12-01T13:42:58.515Z,102338.69
2022-12-01T13:45:33.057Z,102340.50
2022-12-01T13:48:05.299Z,102345.72
2022-12-01T13:51:04.268Z,102344.88
2022-12-01T13:53:35.488Z,102344.94
2022-12-01T13:56:39.613Z,102351.03
2022-12-01T13:59:44.963Z,102347.41
2022-12-01T14:02:18.460Z,102347.41
2022-12-01T14:04:47.279Z,102349.09
2022-12-01T14:07:34.125Z,102344.84
2022-12-01T14:10:17.912Z,102356.19
2022-12-01T14:12:47.669Z,102344.03
2022-12-01T14:15:30.052Z,102345.72
2022-12-01T14:18:07.718Z,102345.75
2022-12-01T14:20:45.439Z,102337.88
2022-12-01T14:23:24.107Z,102333.53
2022-12-01T14:26:15.041Z,102330.88
2022-12-01T14:29:11.353Z,102340.41
2022-12-01T14:32:04.339Z,102335.31
2022-12-01T14:34:35.159Z,102337.03
2022-12-01T14:37:08.597Z,102340.56
2022-12-01T14:39:39.430Z,102350.97
2022-12-01T14:42:52.350Z,102342.28
2022-12-01T14:45:24.973Z,102337.03
2022-12-01T14:48:00.638Z,102340.53
2022-12-01T14:50:42.098Z,102337.91
2022-12-01T14:53:22.603Z,102335.28
2022-12-01T14:55:56.508Z,102330.09
2022-12-01T14:58:27.723Z,102336.19
2022-12-01T15:01:06.747Z,102337.88
2022-12-01T15:03:40.777Z,102336.13
2022-12-01T15:06:10.107Z,102331.88
2022-12-01T15:08:45.916Z,102328.34
2022-12-01T15:11:25.387Z,102325.75
2022-12-01T15:13:55.468Z,102337.06
2022-12-01T15:16:27.434Z,102331.81
2022-12-01T15:18:56.218Z,102334.44
2022-12-01T15:21:27.253Z,102324.88
2022-12-01T15:23:58.053Z,102336.13
2022-12-01T15:26:29.226Z,102332.69
2022-12-01T15:29:15.437Z,102327.41
2022-12-01T15:31:46.970Z,102330.84
2022-12-01T15:34:17.421Z,102326.56
2022-12-01T15:36:46.779Z,102329.13
2022-12-01T15:39:17.689Z,102327.44
2022-12-01T15:41:48.168Z,102325.69
2022-12-01T15:44:22.728Z,102330.09
2022-12-01T15:46:52.159Z,102318.69
2022-12-01T15:49:27.348Z,102326.56
2022-12-01T15:51:56.937Z,102333.47
2022-12-01T15:54:27.344Z,102333.47
2022-12-01T15:56:58.523Z,102328.28
2022-12-01T15:59:30.895Z,102330.91
2022-12-01T16:02:05.813Z,102330.91
2022-12-01T16:04:35.450Z,102328.28
2022-12-01T16:07:07.871Z,102323.06
2022-12-01T16:09:37.718Z,102316.09
2022-12-01T16:12:19.700Z,102319.59
2022-12-01T16:14:54.409Z,102333.53
2022-12-01T16:17:25.365Z,102322.28
2022-12-01T16:20:16.236Z,102319.66
2022-12-01T16:22:46.080Z,102323.97
2022-12-01T16:25:19.477Z,102312.66
2022-12-01T16:27:54.191Z,102317.81
2022-12-01T16:30:24.729Z,102317.00
2022-12-01T16:33:02.255Z,102322.19
2022-12-01T16:35:33.580Z,102322.25
2022-12-01T16:38:06.324Z,102319.63
2022-12-01T16:40:34.489Z,102318.75
2022-12-01T16:43:02.637Z,102331.88
2022-12-01T16:45:31.049Z,102330.09
2022-12-01T16:48:04.752Z,102328.34
2022-12-01T16:50:36.063Z,102328.34
2022-12-01T16:53:04.548Z,102326.59
2022-12-01T16:55:38.804Z,102328.34
2022-12-01T16:58:07.085Z,102326.56
2022-12-01T17:00:35.302Z,102317.00
2022-12-01T17:03:05.508Z,102322.22
2022-12-01T17:05:34.542Z,102316.16
2022-12-01T17:08:02.760Z,102323.13
2022-12-01T17:10:30.992Z,102320.53
2022-12-01T17:12:59.399Z,102309.19
2022-12-01T17:15:27.534Z,102319.59
2022-12-01T17:17:55.704Z,102310.91
2022-12-01T17:20:25.161Z,102314.38
2022-12-01T17:22:53.300Z,102315.34
2022-12-01T17:25:21.458Z,102314.44
2022-12-01T17:27:49.832Z,102311.81
2022-12-01T17:30:18.437Z,102314.44
2022-12-01T17:32:47.243Z,102310.09
2022-12-01T17:35:15.745Z,102305.69
2022-12-01T17:37:45.217Z,102298.78
2022-12-01T17:40:14.779Z,102304.84
2022-12-01T17:42:48.767Z,102305.69
2022-12-01T17:45:19.284Z,102309.16
2022-12-01T17:47:47.658Z,102305.66
2022-12-01T17:50:16.161Z,102311.78
2022-12-01T17:52:45.635Z,102308.28
2022-12-01T17:55:13.982Z,102310.06
2022-12-01T17:57:42.113Z,102308.31
2022-12-01T18:00:11.426Z,102308.31
2022-12-01T18:02:39.651Z,102317.88
2022-12-01T18:05:09.507Z,102310.00
2022-12-01T18:07:38.068Z,102304.78
2022-12-01T18:10:08.165Z,102309.19
2022-12-01T18:12:36.309Z,102309.19
2022-12-01T18:15:05.164Z,102308.25
2022-12-01T18:17:33.310Z,102311.78
2022-12-01T18:20:01.582Z,102308.25
2022-12-01T18:22:29.913Z,102299.56
2022-12-01T18:24:58.688Z,102292.63
2022-12-01T18:27:28.143Z,102301.28
2022-12-01T18:29:56.317Z,102310.88
2022-12-01T18:32:24.457Z,102303.06
2022-12-01T18:34:53.078Z,102299.56
2022-12-01T18:37:21.527Z,102292.59
2022-12-01T18:39:49.749Z,102296.91
2022-12-01T18:42:17.893Z,102295.19
2022-12-01T18:44:47.799Z,102300.44
2022-12-01T18:47:16.155Z,102295.22
2022-12-01T18:49:44.340Z,102300.38
2022-12-01T18:52:12.869Z,102296.94
2022-12-01T18:54:41.006Z,102293.47
2022-12-01T18:57:09.163Z,102303.91
2022-12-01T18:59:37.296Z,102303.06
2022-12-01T19:02:06.936Z,102302.22
2022-12-01T19:04:36.066Z,102303.06
2022-12-01T19:07:04.699Z,102298.69
2022-12-01T19:09:32.921Z,102299.59
2022-12-01T19:12:01.050Z,102299.59
2022-12-01T19:14:29.801Z,102290.88
2022-12-01T19:17:00.557Z,102290.88
2022-12-01T19:19:35.848Z,102296.13
2022-12-01T19:22:05.867Z,102297.00
2022-12-01T19:24:34.019Z,102298.78
2022-12-01T19:27:02.168Z,102289.16
2022-12-01T19:29:30.281Z,102288.22
2022-12-01T19:31:58.609Z,102285.63
2022-12-01T19:34:26.831Z,102299.50
2022-12-01T19:36:56.923Z,102290.78
2022-12-01T19:39:25.102Z,102289.09
2022-12-01T19:41:53.813Z,102296.06
2022-12-01T19:44:21.929Z,102290.84
2022-12-01T19:46:50.048Z,102286.53
2022-12-01T19:49:18.242Z,102291.72
2022-12-01T19:51:46.414Z,102279.53
2022-12-01T19:54:17.762Z,102285.63
2022-12-01T19:56:46.452Z,102298.72
2022-12-01T19:59:14.981Z,102289.09
2022-12-01T20:01:43.242Z,102299.59
2022-12-01T20:04:11.501Z,102293.47
2022-12-01T20:06:39.672Z,102292.56
2022-12-01T20:09:09.693Z,102292.56
2022-12-01T20:11:39.259Z,102304.75
2022-12-01T20:14:08.493Z,102293.47
2022-12-01T20:16:38.726Z,102294.31
2022-12-01T20:19:07.226Z,102296.06
2022-12-01T20:21:39.229Z,102296.09
2022-12-01T20:24:09.209Z,102302.19
2022-12-01T20:26:41.516Z,102304.84
2022-12-01T20:29:13.265Z,102296.13
2022-12-01T20:31:42.309Z,102300.44
2022-12-01T20:34:14.386Z,102305.69
2022-12-01T20:36:43.315Z,102303.06
2022-12-01T20:39:12.534Z,102306.53
2022-12-01T20:41:43.397Z,102300.44
2022-12-01T20:44:12.701Z,102299.53
2022-12-01T20:46:41.812Z,102303.03
2022-12-01T20:49:10.392Z,102300.41
2022-12-01T20:51:39.209Z,102284.72
2022-12-01T20:57:00.221Z,102293.47
2022-12-01T20:59:29.197Z,102295.22
2022-12-01T21:01:57.555Z,102297.81
2022-12-01T21:04:26.064Z,102296.09
2022-12-01T21:06:56.762Z,102302.19
2022-12-01T21:09:25.988Z,102302.19
2022-12-01T21:12:12.145Z,102297.81
2022-12-01T21:14:48.586Z,102305.69
2022-12-01T21:17:26.821Z,102306.50
2022-12-01T21:20:01.571Z,102302.19
2022-12-01T21:22:29.998Z,102301.31
2022-12-01T21:25:10.989Z,102297.81
2022-12-01T21:27:39.171Z,102283.88
2022-12-01T21:30:17.225Z,102288.22
2022-12-01T21:32:46.550Z,102297.00
2022-12-01T21:35:18.887Z,102305.69
2022-12-01T21:37:48.216Z,102302.19
2022-12-01T21:40:22.490Z,102298.69
2022-12-01T21:42:51.439Z,102295.19
2022-12-01T21:45:27.311Z,102298.66
2022-12-01T21:48:01.352Z,102303.03
2022-12-01T21:50:29.507Z,102294.31
2022-12-01T21:52:58.886Z,102286.53
2022-12-01T21:55:36.135Z,102283.00
2022-12-01T21:58:20.735Z,102277.75
2022-12-01T22:00:50.363Z,102287.34
2022-12-01T22:03:30.737Z,102289.03
2022-12-01T22:06:28.370Z,102290.84
2022-12-01T22:08:52.430Z,102283.84
2022-12-01T22:11:23.107Z,102277.78
2022-12-01T22:13:56.058Z,102293.50
2022-12-01T22:16:31.548Z,102282.13
2022-12-01T22:19:01.098Z,102279.53
2022-12-01T22:21:33.445Z,102273.41
2022-12-01T22:24:30.171Z,102270.75
2022-12-01T22:27:10.479Z,102276.03
2022-12-01T22:29:42.828Z,102272.56
2022-12-01T22:32:34.889Z,102270.81
2022-12-01T22:35:23.617Z,102268.25
2022-12-01T22:37:53.117Z,102265.59
2022-12-01T22:40:37.283Z,102262.06
2022-12-01T22:43:25.892Z,102269.09
2022-12-01T22:46:03.293Z,102271.69
2022-12-01T22:48:38.448Z,102267.34
2022-12-01T22:51:22.898Z,102265.59
2022-12-01T22:53:55.673Z,102256.88
2022-12-01T22:56:34.831Z,102263.84
2022-12-01T22:59:13.923Z,102259.47
2022-12-01T23:01:48.841Z,102251.63
2022-12-01T23:04:26.412Z,102256.00
2022-12-01T23:06:59.581Z,102251.63
2022-12-01T23:09:32.278Z,102253.38
2022-12-01T23:12:06.662Z,102249.88
2022-12-01T23:14:35.504Z,102250.78
2022-12-01T23:17:08.129Z,102251.66
2022-12-01T23:19:37.611Z,102250.78
2022-12-01T23:22:05.901Z,102247.31
2022-12-01T23:24:34.516Z,102247.25
2022-12-01T23:27:02.911Z,102245.53
2022-12-01T23:29:31.937Z,102237.69
2022-12-01T23:32:01.763Z,102239.41
2022-12-01T23:34:30.157Z,102234.19
2022-12-01T23:36:59.661Z,102235.97
2022-12-01T23:39:32.865Z,102242.91
2022-12-01T23:42:01.277Z,102242.03
2022-12-01T23:44:38.750Z,102239.44
2022-12-01T23:47:16.911Z,102235.97
2022-12-01T23:49:46.365Z,102234.25
2022-12-01T23:52:19.695Z,102235.97
2022-12-01T23:54:48.101Z,102237.69
2022-12-01T23:57:21.236Z,102240.31
2022-12-01T23:59:50.291Z,102233.34
